This is the latest recevied weather packets stored in our database for station/object K7MT-WX. If no packets are shown the sender has not sent any weather packets the latest 10 day(s).
| Time | Temp. | Humidity | Pressure | Rain* | Wind** | Luminosity | Snow |
|---|---|---|---|---|---|---|---|
| 1777644819 | 2.22° C | 77% | 1021.7 hPa | 0 mm | - | - | - |
| 1777643889 | 1.67° C | 79% | 1021.6 hPa | 0 mm | - | - | - |
| 1777642959 | 1.11° C | 78% | 1021.6 hPa | 0 mm | - | - | - |
| 1777642029 | 1.67° C | 75% | 1021.5 hPa | 0 mm | - | - | - |
| 1777641099 | 0.56° C | 78% | 1021.4 hPa | 0 mm | - | - | - |
| 1777640199 | 0° C | 80% | 1021.1 hPa | 0 mm | - | - | - |
| 1777639299 | -1.11° C | 83% | 1021 hPa | 0 mm | - | - | - |
| 1777638399 | -1.11° C | 82% | 1021.1 hPa | 0 mm | - | - | - |
| 1777637469 | -1.11° C | 82% | 1021 hPa | 0 mm | - | - | - |
| 1777636569 | -1.11° C | 80% | 1021 hPa | 0 mm | - | - | - |
| 1777635669 | -1.11° C | 80% | 1021.1 hPa | 0 mm | - | - | - |
| 1777634739 | -0.56° C | 80% | 1021 hPa | 0 mm | - | - | - |
| 1777633809 | -0.56° C | 80% | 1021.1 hPa | 0 mm | - | - | - |
| 1777632909 | 0° C | 79% | 1020.9 hPa | 0 mm | - | - | - |
| 1777631979 | 0° C | 79% | 1020.8 hPa | 0 mm | - | - | - |
| 1777631079 | 0° C | 77% | 1020.8 hPa | 0 mm | - | - | - |
| 1777630179 | 1.11° C | 75% | 1020.7 hPa | 0 mm | - | - | - |
| 1777629249 | 1.67° C | 75% | 1020.7 hPa | 0 mm | - | - | - |
| 1777628349 | 1.67° C | 76% | 1020.6 hPa | 0 mm | - | - | - |
| 1777627449 | 1.11° C | 74% | 1020.6 hPa | 0 mm | - | - | - |
| 1777626519 | 1.11° C | 75% | 1020.5 hPa | 0 mm | - | - | - |
| 1777625619 | 1.67° C | 73% | 1020.5 hPa | 0 mm | - | - | - |
| 1777624719 | 2.22° C | 72% | 1020.4 hPa | 0 mm | - | - | - |
| 1777623819 | 2.22° C | 72% | 1020.4 hPa | 0 mm | - | - | - |
| 1777622919 | 2.78° C | 70% | 1020.3 hPa | 0 mm | - | - | - |
* Rain latest hour (hover to see other rain measurements)
** Current wind speed in m/s (hover to see current wind gust speed)